Time;durP1;ratioP1;P1;durP2;ratioP2;P2;SDS_P1;SDS_P2;PMS_P1;PMS_P2;Temp;Humidity;BMP_temperature;BMP_pressure;BME280_temperature;BME280_humidity;BME280_pressure;Samples;Min_cycle;Max_cycle;Signal;HPM_P1;HPM_P2
2022/01/26 00:05:47;;;;;;;;;;;;;;;;;;5000902;28;19932;-86
2022/01/26 00:06:21;;;;;;;;;;;;;;;;;;5011475;28;19969;-86
2022/01/26 00:08:48;;;;;;;;;;;;;;;;;;4993279;28;19932;-86
2022/01/26 00:11:14;;;;;;;;;;;;;;;;;;5025786;28;20387;-86
2022/01/26 00:13:41;;;;;;;;;;;;;;;;;;5010842;28;19927;-86
2022/01/26 00:16:13;;;;;;;;;;;;;;;;;;4993181;28;19921;-86
2022/01/26 00:18:40;;;;;;;;;;;;;;;;;;5023498;28;19974;-86
2022/01/26 00:21:23;;;;;;;;;;;;;;;;;;5038293;28;19932;-86
2022/01/26 00:24:21;;;;;;;;;;;;;;;;;;5073543;28;19934;-86
2022/01/26 00:29:47;;;;;;;;;;;;;;;;;;5060399;28;19916;-86
2022/01/26 00:40:43;;;;;;;;;;;;;;;;;;5066303;28;20107;-86
2022/01/26 00:43:23;;;;;;;;;;;;;;;;;;5053277;28;20569;-86
2022/01/26 00:46:07;;;;;;;;;;;;;;;;;;5026013;28;19975;-86
2022/01/26 00:48:36;;;;;;;;;;;;;;;;;;5002147;28;19967;-85
2022/01/26 00:51:05;;;;;;;;;;;;;;;;;;5030554;28;20299;-85
2022/01/26 00:53:36;;;;;;;;;;;;;;;;;;5008295;28;20009;-85
2022/01/26 00:56:03;;;;;;;;;;;;;;;;;;5006637;28;19964;-86
2022/01/26 00:58:29;;;;;;;;;;;;;;;;;;5023290;28;20791;-85
2022/01/26 01:00:58;;;;;;;;;;;;;;;;;;5007602;28;19921;-85
2022/01/26 01:03:25;;;;;;;;;;;;;;;;;;4995156;28;20071;-86
2022/01/26 01:05:59;;;;;;;;;;;;;;;;;;4988301;28;19977;-85
2022/01/26 01:08:26;;;;;;;;;;;;;;;;;;5005384;28;19937;-85
2022/01/26 01:10:52;;;;;;;;;;;;;;;;;;5003850;28;19983;-85
2022/01/26 01:13:30;;;;;;;;;;;;;;;;;;5023142;28;20112;-85
2022/01/26 01:15:56;;;;;;;;;;;;;;;;;;5018193;28;19928;-85
2022/01/26 01:32:13;;;;;;;;;;;;;;;;;;5067444;28;19930;-85
2022/01/26 01:34:39;;;;;;;;;;;;;;;;;;5028563;28;19917;-85
2022/01/26 01:37:06;;;;;;;;;;;;;;;;;;5047187;28;20067;-85
2022/01/26 01:39:33;;;;;;;;;;;;;;;;;;5040866;28;19923;-85
2022/01/26 01:42:00;;;;;;;;;;;;;;;;;;5062818;28;19976;-85
2022/01/26 01:44:27;;;;;;;;;;;;;;;;;;5059191;28;19924;-85
2022/01/26 01:46:54;;;;;;;;;;;;;;;;;;5053334;28;19935;-86
2022/01/26 01:49:23;;;;;;;;;;;;;;;;;;5065923;28;19951;-86
2022/01/26 01:51:53;;;;;;;;;;;;;;;;;;5043879;28;19928;-86
2022/01/26 01:54:20;;;;;;;;;;;;;;;;;;5066675;28;19939;-86
2022/01/26 01:56:49;;;;;;;;;;;;;;;;;;5027308;28;21130;-85
2022/01/26 01:59:15;;;;;;;;;;;;;;;;;;5066358;28;19920;-86
2022/01/26 02:01:47;;;;;;;;;;;;;;;;;;5041636;28;19990;-86
2022/01/26 02:04:13;;;;;;;;;;;;;;;;;;5045509;28;20019;-86
2022/01/26 02:06:42;;;;;;;;;;;;;;;;;;5042469;28;19938;-86
2022/01/26 02:09:08;;;;;;;;;;;;;;;;;;5064430;28;20290;-86
2022/01/26 02:11:37;;;;;;;;;;;;;;;;;;5079480;28;20019;-86
2022/01/26 02:14:09;;;;;;;;;;;;;;;;;;5063507;28;19920;-86
2022/01/26 02:16:47;;;;;;;;;;;;;;;;;;5062734;28;19931;-86
2022/01/26 03:03:30;;;;;;;;;;;;;;;;;;5070489;28;19932;-85
2022/01/26 03:06:06;;;;;;;;;;;;;;;;;;5085822;28;19924;-85
2022/01/26 03:08:41;;;;;;;;;;;;;;;;;;5080816;28;20006;-86
2022/01/26 03:11:10;;;;;;;;;;;;;;;;;;5065249;28;19932;-85
2022/01/26 03:13:43;;;;;;;;;;;;;;;;;;5059180;28;20346;-86
2022/01/26 03:16:28;;;;;;;;;;;;;;;;;;5064067;28;19927;-85
2022/01/26 03:19:18;;;;;;;;;;;;;;;;;;5057968;28;20015;-86
2022/01/26 03:21:55;;;;;;;;;;;;;;;;;;5059754;28;20007;-86
2022/01/26 03:30:46;;;;;;;;;;;;;;;;;;5013362;28;19998;-85
2022/01/26 03:35:46;;;;;;;;;;;;;;;;;;5064247;28;19966;-85
2022/01/26 03:38:39;;;;;;;;;;;;;;;;;;5064867;28;19931;-86
2022/01/26 03:43:44;;;;;;;;;;;;;;;;;;5047177;28;20012;-85
2022/01/26 03:46:10;;;;;;;;;;;;;;;;;;5053255;28;19925;-85
2022/01/26 03:48:37;;;;;;;;;;;;;;;;;;5045842;28;20346;-86
2022/01/26 03:51:03;;;;;;;;;;;;;;;;;;5041424;28;20015;-85
2022/01/26 03:53:29;;;;;;;;;;;;;;;;;;5035974;28;19946;-85
2022/01/26 03:55:55;;;;;;;;;;;;;;;;;;5036867;28;19920;-85
2022/01/26 03:58:21;;;;;;;;;;;;;;;;;;5049517;28;19935;-85
2022/01/26 04:00:48;;;;;;;;;;;;;;;;;;5065160;28;19935;-86
2022/01/26 04:03:14;;;;;;;;;;;;;;;;;;5034899;28;19943;-86
2022/01/26 04:05:40;;;;;;;;;;;;;;;;;;5026929;28;19928;-85
2022/01/26 04:08:14;;;;;;;;;;;;;;;;;;5052744;28;19936;-85
2022/01/26 04:13:34;;;;;;;;;;;;;;;;;;5051526;28;19967;-86
2022/01/26 04:16:01;;;;;;;;;;;;;;;;;;5048675;28;19929;-86
2022/01/26 04:18:34;;;;;;;;;;;;;;;;;;5050249;28;19920;-85
2022/01/26 04:21:08;;;;;;;;;;;;;;;;;;5050843;28;19994;-86
2022/01/26 04:26:27;;;;;;;;;;;;;;;;;;5071140;28;19920;-85
2022/01/26 04:29:03;;;;;;;;;;;;;;;;;;5071432;28;19938;-85
2022/01/26 04:31:38;;;;;;;;;;;;;;;;;;5063487;28;19930;-85
2022/01/26 04:34:04;;;;;;;;;;;;;;;;;;5091611;28;19989;-85
2022/01/26 04:36:47;;;;;;;;;;;;;;;;;;5066892;28;19920;-85
2022/01/26 04:39:26;;;;;;;;;;;;;;;;;;5086658;28;19974;-86
2022/01/26 04:45:02;;;;;;;;;;;;;;;;;;5045169;28;20030;-85
2022/01/26 04:47:28;;;;;;;;;;;;;;;;;;5061373;28;20271;-85
2022/01/26 04:49:54;;;;;;;;;;;;;;;;;;5059870;28;19927;-86
2022/01/26 04:52:20;;;;;;;;;;;;;;;;;;5072801;28;19919;-86
2022/01/26 04:54:46;;;;;;;;;;;;;;;;;;5049107;28;19928;-85
2022/01/26 04:57:12;;;;;;;;;;;;;;;;;;5058636;28;20393;-86
2022/01/26 04:59:38;;;;;;;;;;;;;;;;;;5073670;27;19923;-86
2022/01/26 05:02:04;;;;;;;;;;;;;;;;;;5068904;28;20018;-86
2022/01/26 05:04:30;;;;;;;;;;;;;;;;;;5047812;28;19926;-86
2022/01/26 05:06:56;;;;;;;;;;;;;;;;;;5054927;28;20457;-85
2022/01/26 05:09:23;;;;;;;;;;;;;;;;;;5089352;28;20020;-87
2022/01/26 05:11:52;;;;;;;;;;;;;;;;;;5070287;28;20369;-86
2022/01/26 05:14:20;;;;;;;;;;;;;;;;;;5071530;28;19935;-86
2022/01/26 05:17:01;;;;;;;;;;;;;;;;;;5012548;28;19921;-86
2022/01/26 05:19:28;;;;;;;;;;;;;;;;;;4981551;28;20415;-86
2022/01/26 05:22:00;;;;;;;;;;;;;;;;;;4994628;28;19963;-85
2022/01/26 05:24:27;;;;;;;;;;;;;;;;;;4986563;28;19932;-87
2022/01/26 05:27:02;;;;;;;;;;;;;;;;;;5008149;28;20609;-86
2022/01/26 05:29:28;;;;;;;;;;;;;;;;;;5007418;28;19929;-86
2022/01/26 05:31:54;;;;;;;;;;;;;;;;;;4979767;28;19932;-86
2022/01/26 05:34:22;;;;;;;;;;;;;;;;;;4976508;28;20375;-86
2022/01/26 05:36:48;;;;;;;;;;;;;;;;;;5004627;28;20287;-86
2022/01/26 05:39:14;;;;;;;;;;;;;;;;;;4988795;28;19929;-87
2022/01/26 05:41:41;;;;;;;;;;;;;;;;;;4986365;28;19956;-86
2022/01/26 05:44:07;;;;;;;;;;;;;;;;;;4989519;28;21612;-87
2022/01/26 05:46:50;;;;;;;;;;;;;;;;;;5002248;28;20071;-87
2022/01/26 05:49:32;;;;;;;;;;;;;;;;;;5004597;28;19928;-86
2022/01/26 05:51:58;;;;;;;;;;;;;;;;;;4977214;28;19929;-86
2022/01/26 05:54:39;;;;;;;;;;;;;;;;;;4989950;28;19969;-87
2022/01/26 05:57:08;;;;;;;;;;;;;;;;;;4979683;28;20020;-86
2022/01/26 05:59:35;;;;;;;;;;;;;;;;;;4963062;28;19980;-87
2022/01/26 06:02:11;;;;;;;;;;;;;;;;;;4983366;28;21007;-85
2022/01/26 06:04:37;;;;;;;;;;;;;;;;;;4981931;28;19960;-83
2022/01/26 06:07:03;;;;;;;;;;;;;;;;;;4970441;28;20716;-86
2022/01/26 06:09:29;;;;;;;;;;;;;;;;;;4982361;28;20324;-82
2022/01/26 06:12:10;;;;;;;;;;;;;;;;;;4983948;28;19929;-91
2022/01/26 06:14:36;;;;;;;;;;;;;;;;;;4970887;28;20016;-87
2022/01/26 06:17:02;;;;;;;;;;;;;;;;;;4989644;28;19952;-86
2022/01/26 06:19:28;;;;;;;;;;;;;;;;;;4961774;28;19935;-84
2022/01/26 06:21:54;;;;;;;;;;;;;;;;;;4970406;28;19921;-90
2022/01/26 06:24:23;;;;;;;;;;;;;;;;;;4985531;28;19928;-87
2022/01/26 06:26:49;;;;;;;;;;;;;;;;;;5001507;28;19936;-87
2022/01/26 06:29:15;;;;;;;;;;;;;;;;;;5025843;28;20698;-81
2022/01/26 06:31:42;;;;;;;;;;;;;;;;;;5004736;28;19936;-87
2022/01/26 06:34:07;;;;;;;;;;;;;;;;;;5000969;28;19960;-88
2022/01/26 06:36:35;;;;;;;;;;;;;;;;;;4999078;28;20366;-87
2022/01/26 06:39:02;;;;;;;;;;;;;;;;;;5014074;28;20052;-87
2022/01/26 06:41:29;;;;;;;;;;;;;;;;;;5014588;28;19965;-88
2022/01/26 06:44:03;;;;;;;;;;;;;;;;;;5036186;28;20303;-86
2022/01/26 06:46:42;;;;;;;;;;;;;;;;;;5073239;28;20324;-86
2022/01/26 06:51:54;;;;;;;;;;;;;;;;;;5059895;28;20015;-87
2022/01/26 06:54:21;;;;;;;;;;;;;;;;;;5056778;28;19942;-89
2022/01/26 06:56:48;;;;;;;;;;;;;;;;;;5038052;28;20389;-87
2022/01/26 06:59:15;;;;;;;;;;;;;;;;;;5057402;28;19920;-85
2022/01/26 07:01:41;;;;;;;;;;;;;;;;;;5066823;28;19920;-85
2022/01/26 07:04:07;;;;;;;;;;;;;;;;;;5071960;28;19928;-86
2022/01/26 07:06:34;;;;;;;;;;;;;;;;;;5034626;28;19928;-85
2022/01/26 07:09:00;;;;;;;;;;;;;;;;;;5055052;28;20006;-84
2022/01/26 07:11:26;;;;;;;;;;;;;;;;;;5074410;28;19956;-87
2022/01/26 07:13:54;;;;;;;;;;;;;;;;;;5062702;28;19963;-86
2022/01/26 07:21:50;;;;;;;;;;;;;;;;;;5077520;28;19924;-84
2022/01/26 07:24:16;;;;;;;;;;;;;;;;;;5081932;28;19964;-87
2022/01/26 07:26:45;;;;;;;;;;;;;;;;;;5057991;28;20003;-86
2022/01/26 07:29:13;;;;;;;;;;;;;;;;;;5078652;28;19931;-82
2022/01/26 07:31:42;;;;;;;;;;;;;;;;;;5081896;28;19989;-83
2022/01/26 07:34:09;;;;;;;;;;;;;;;;;;5080241;28;19928;-81
2022/01/26 07:36:35;;;;;;;;;;;;;;;;;;5091107;28;20428;-84
2022/01/26 07:39:07;;;;;;;;;;;;;;;;;;5082162;28;20350;-82
2022/01/26 07:41:33;;;;;;;;;;;;;;;;;;5074784;28;19924;-83
2022/01/26 07:43:59;;;;;;;;;;;;;;;;;;5068836;28;19935;-82
2022/01/26 07:46:25;;;;;;;;;;;;;;;;;;5066007;28;19920;-81
2022/01/26 07:48:52;;;;;;;;;;;;;;;;;;5081666;28;19935;-81
2022/01/26 07:51:18;;;;;;;;;;;;;;;;;;5055824;28;20019;-81
2022/01/26 07:53:45;;;;;;;;;;;;;;;;;;5073223;28;19924;-79
2022/01/26 07:56:12;;;;;;;;;;;;;;;;;;5077176;28;19943;-80
2022/01/26 07:58:43;;;;;;;;;;;;;;;;;;5077946;28;20012;-83
2022/01/26 08:01:09;;;;;;;;;;;;;;;;;;5079309;28;19928;-82
2022/01/26 08:03:35;;;;;;;;;;;;;;;;;;5079344;28;19920;-81
2022/01/26 08:06:05;;;;;;;;;;;;;;;;;;5078050;28;19924;-79
2022/01/26 08:08:32;;;;;;;;;;;;;;;;;;5075371;28;19939;-80
2022/01/26 08:11:13;;;;;;;;;;;;;;;;;;5069699;28;19925;-81
2022/01/26 08:13:39;;;;;;;;;;;;;;;;;;5048344;28;19928;-79
2022/01/26 08:16:05;;;;;;;;;;;;;;;;;;5072697;28;19924;-78
2022/01/26 08:18:32;;;;;;;;;;;;;;;;;;5066995;28;19920;-80
2022/01/26 08:21:05;;;;;;;;;;;;;;;;;;5050122;28;19928;-79
2022/01/26 08:23:32;;;;;;;;;;;;;;;;;;5058297;28;19928;-81
2022/01/26 08:25:59;;;;;;;;;;;;;;;;;;5058267;28;19931;-81
2022/01/26 08:28:35;;;;;;;;;;;;;;;;;;5060431;28;19924;-79
2022/01/26 08:31:02;;;;;;;;;;;;;;;;;;5058835;28;20011;-78
2022/01/26 08:33:31;;;;;;;;;;;;;;;;;;5074440;28;19986;-81
2022/01/26 08:35:58;;;;;;;;;;;;;;;;;;5044113;28;20414;-82
2022/01/26 08:38:26;;;;;;;;;;;;;;;;;;5055369;28;20279;-85
2022/01/26 08:40:52;;;;;;;;;;;;;;;;;;5081670;28;19927;-84
2022/01/26 08:43:19;;;;;;;;;;;;;;;;;;5089991;28;20346;-84
2022/01/26 08:45:45;;;;;;;;;;;;;;;;;;5079738;28;19928;-83
2022/01/26 08:48:12;;;;;;;;;;;;;;;;;;5076811;28;19939;-85
2022/01/26 08:50:39;;;;;;;;;;;;;;;;;;5077049;28;20561;-84
2022/01/26 08:53:14;;;;;;;;;;;;;;;;;;5077818;28;20434;-83
2022/01/26 08:55:40;;;;;;;;;;;;;;;;;;5072032;28;19920;-83
2022/01/26 08:58:07;;;;;;;;;;;;;;;;;;5080385;28;20326;-87
2022/01/26 09:00:35;;;;;;;;;;;;;;;;;;5059774;28;20290;-87
2022/01/26 09:03:01;;;;;;;;;;;;;;;;;;5075724;28;19934;-84
2022/01/26 09:05:28;;;;;;;;;;;;;;;;;;5073569;28;20006;-82
2022/01/26 09:07:58;;;;;;;;;;;;;;;;;;5080784;28;19940;-82
2022/01/26 09:10:34;;;;;;;;;;;;;;;;;;5073100;28;20013;-82
2022/01/26 09:13:02;;;;;;;;;;;;;;;;;;5083639;28;19981;-82
2022/01/26 09:15:29;;;;;;;;;;;;;;;;;;5057550;28;19924;-81
2022/01/26 09:17:56;;;;;;;;;;;;;;;;;;5066490;28;20274;-82
2022/01/26 09:20:23;;;;;;;;;;;;;;;;;;5076430;28;19999;-80
2022/01/26 09:22:49;;;;;;;;;;;;;;;;;;5085444;28;19998;-80
2022/01/26 09:25:15;;;;;;;;;;;;;;;;;;5088824;28;19955;-82
2022/01/26 09:27:41;;;;;;;;;;;;;;;;;;5075526;28;20739;-82
2022/01/26 09:30:07;;;;;;;;;;;;;;;;;;5084401;28;19920;-83
2022/01/26 09:32:34;;;;;;;;;;;;;;;;;;5072069;28;19955;-82
2022/01/26 09:35:01;;;;;;;;;;;;;;;;;;5084861;28;19920;-81
2022/01/26 09:37:28;;;;;;;;;;;;;;;;;;5074278;28;19923;-83
2022/01/26 09:39:55;;;;;;;;;;;;;;;;;;5083763;28;19927;-82
2022/01/26 09:42:21;;;;;;;;;;;;;;;;;;5099715;27;19947;-82
2022/01/26 09:44:47;;;;;;;;;;;;;;;;;;5075868;28;22391;-80
2022/01/26 09:47:28;;;;;;;;;;;;;;;;;;5080648;28;19928;-82
2022/01/26 09:49:54;;;;;;;;;;;;;;;;;;5059903;28;20046;-80
2022/01/26 09:52:26;;;;;;;;;;;;;;;;;;5061600;28;20002;-81
2022/01/26 09:54:54;;;;;;;;;;;;;;;;;;5083844;28;19958;-81
2022/01/26 09:57:20;;;;;;;;;;;;;;;;;;5079838;28;19916;-80
2022/01/26 09:59:46;;;;;;;;;;;;;;;;;;5067024;28;19946;-80
2022/01/26 10:02:12;;;;;;;;;;;;;;;;;;5081322;28;19921;-79
2022/01/26 10:04:40;;;;;;;;;;;;;;;;;;5067919;28;19923;-78
2022/01/26 10:07:16;;;;;;;;;;;;;;;;;;5055579;28;19916;-80
2022/01/26 10:10:04;;;;;;;;;;;;;;;;;;5052881;28;19930;-81
2022/01/26 10:18:11;;;;;;;;;;;;;;;;;;5082052;28;19924;-80
2022/01/26 10:20:38;;;;;;;;;;;;;;;;;;5095291;28;19952;-79
2022/01/26 10:23:04;;;;;;;;;;;;;;;;;;5080589;28;19924;-81
2022/01/26 10:25:30;;;;;;;;;;;;;;;;;;5057025;28;19930;-80
2022/01/26 10:27:56;;;;;;;;;;;;;;;;;;5097748;28;20286;-79
2022/01/26 10:30:23;;;;;;;;;;;;;;;;;;5098882;28;19930;-78
2022/01/26 10:32:49;;;;;;;;;;;;;;;;;;5079339;28;20377;-78
2022/01/26 10:35:15;;;;;;;;;;;;;;;;;;5081405;28;20385;-79
2022/01/26 10:37:41;;;;;;;;;;;;;;;;;;5082597;28;19920;-82
2022/01/26 10:40:09;;;;;;;;;;;;;;;;;;5096459;28;19920;-79
2022/01/26 10:42:36;;;;;;;;;;;;;;;;;;5095069;28;19926;-78
2022/01/26 10:47:32;;;;;;;;;;;;;;;;;;5094029;28;19947;-80
2022/01/26 10:52:57;;;;;;;;;;;;;;;;;;5016501;28;19929;-84
2022/01/26 10:55:23;;;;;;;;;;;;;;;;;;5001907;28;19921;-84
2022/01/26 10:57:50;;;;;;;;;;;;;;;;;;5044998;28;20018;-84
2022/01/26 11:00:16;;;;;;;;;;;;;;;;;;5098372;28;19920;-83
2022/01/26 11:02:47;;;;;;;;;;;;;;;;;;5094300;28;19927;-83
2022/01/26 11:05:13;;;;;;;;;;;;;;;;;;5081454;28;19962;-81
2022/01/26 11:07:41;;;;;;;;;;;;;;;;;;5074527;28;19970;-82
2022/01/26 11:10:08;;;;;;;;;;;;;;;;;;5062118;28;20362;-83
2022/01/26 11:12:35;;;;;;;;;;;;;;;;;;5068663;28;19983;-84
2022/01/26 11:15:01;;;;;;;;;;;;;;;;;;5072538;28;20317;-83
2022/01/26 11:17:27;;;;;;;;;;;;;;;;;;5069644;28;19932;-84
2022/01/26 11:19:56;;;;;;;;;;;;;;;;;;5069250;28;19920;-84
2022/01/26 11:22:27;;;;;;;;;;;;;;;;;;5070872;28;19974;-89
2022/01/26 11:24:54;;;;;;;;;;;;;;;;;;5058803;28;20006;-90
2022/01/26 11:27:21;;;;;;;;;;;;;;;;;;5070626;28;19931;-88
2022/01/26 11:29:52;;;;;;;;;;;;;;;;;;5066636;28;19928;-89
2022/01/26 11:32:32;;;;;;;;;;;;;;;;;;5073332;28;19934;-88
2022/01/26 11:34:59;;;;;;;;;;;;;;;;;;5058699;28;20396;-87
2022/01/26 11:37:25;;;;;;;;;;;;;;;;;;5075316;28;20435;-90
2022/01/26 11:45:27;;;;;;;;;;;;;;;;;;5073779;28;19981;-87
2022/01/26 11:47:54;;;;;;;;;;;;;;;;;;5074683;28;20625;-95
2022/01/26 11:50:21;;;;;;;;;;;;;;;;;;5054517;28;19926;-86
2022/01/26 11:52:47;;;;;;;;;;;;;;;;;;5068618;28;19932;-87
2022/01/26 11:55:13;;;;;;;;;;;;;;;;;;5070943;28;20415;-88
2022/01/26 11:57:39;;;;;;;;;;;;;;;;;;5069771;28;19924;-86
2022/01/26 12:00:08;;;;;;;;;;;;;;;;;;5075898;28;19928;-86
2022/01/26 12:02:48;;;;;;;;;;;;;;;;;;5049493;28;19928;-87
2022/01/26 12:05:18;;;;;;;;;;;;;;;;;;5076561;28;19928;-86
2022/01/26 12:07:46;;;;;;;;;;;;;;;;;;5071252;28;19928;-87
2022/01/26 12:10:12;;;;;;;;;;;;;;;;;;5076577;28;19976;-86
2022/01/26 12:12:38;;;;;;;;;;;;;;;;;;5070916;28;20291;-86
2022/01/26 12:15:04;;;;;;;;;;;;;;;;;;5073374;28;19926;-86
2022/01/26 12:17:36;;;;;;;;;;;;;;;;;;5071507;28;19932;-86
2022/01/26 12:31:59;;;;;;;;;;;;;;;;;;5072696;28;19994;-86
2022/01/26 12:37:11;;;;;;;;;;;;;;;;;;5013516;28;19928;-87
2022/01/26 12:45:04;;;;;;;;;;;;;;;;;;5029846;28;19924;-86
2022/01/26 12:47:30;;;;;;;;;;;;;;;;;;5015217;28;19927;-88
2022/01/26 12:49:56;;;;;;;;;;;;;;;;;;5027112;28;20392;-86
2022/01/26 12:52:23;;;;;;;;;;;;;;;;;;5032685;28;20099;-85
2022/01/26 12:54:49;;;;;;;;;;;;;;;;;;4994002;28;19921;-92
2022/01/26 12:57:15;;;;;;;;;;;;;;;;;;5001702;28;19924;-86
2022/01/26 12:59:41;;;;;;;;;;;;;;;;;;5009513;28;19978;-85
2022/01/26 13:02:07;;;;;;;;;;;;;;;;;;5018143;28;19974;-86
2022/01/26 13:04:39;;;;;;;;;;;;;;;;;;5070146;28;20377;-85
2022/01/26 13:07:06;;;;;;;;;;;;;;;;;;5073110;28;21501;-86
2022/01/26 13:09:33;;;;;;;;;;;;;;;;;;5071022;28;20485;-85
2022/01/26 13:11:59;;;;;;;;;;;;;;;;;;5070320;28;20007;-87
2022/01/26 13:14:32;;;;;;;;;;;;;;;;;;5097461;27;19963;-89
2022/01/26 13:17:06;;;;;;;;;;;;;;;;;;5080203;28;20010;-90
2022/01/26 13:19:53;;;;;;;;;;;;;;;;;;5073653;28;19916;-85
2022/01/26 13:28:00;;;;;;;;;;;;;;;;;;5068557;28;19982;-85
2022/01/26 13:31:02;;;;;;;;;;;;;;;;;;5071940;28;19962;-87
2022/01/26 13:33:40;;;;;;;;;;;;;;;;;;5068789;28;20001;-83
2022/01/26 13:39:10;;;;;;;;;;;;;;;;;;5074408;28;19931;-80
2022/01/26 13:42:09;;;;;;;;;;;;;;;;;;5087520;28;19930;-80
2022/01/26 13:44:57;;;;;;;;;;;;;;;;;;5084800;28;19924;-81
2022/01/26 14:00:22;;;;;;;;;;;;;;;;;;5037248;28;20480;-80
2022/01/26 14:02:50;;;;;;;;;;;;;;;;;;5035574;28;20329;-81
2022/01/26 14:05:17;;;;;;;;;;;;;;;;;;5041716;28;19920;-83
2022/01/26 14:07:43;;;;;;;;;;;;;;;;;;5034516;28;19933;-82
2022/01/26 14:10:09;;;;;;;;;;;;;;;;;;5033811;28;19924;-80
2022/01/26 14:12:39;;;;;;;;;;;;;;;;;;5050511;28;19925;-84
2022/01/26 14:15:08;;;;;;;;;;;;;;;;;;5053085;28;19920;-88
2022/01/26 14:17:52;;;;;;;;;;;;;;;;;;5018603;28;20007;-80
2022/01/26 14:23:18;;;;;;;;;;;;;;;;;;5063043;28;19920;-80
2022/01/26 14:25:50;;;;;;;;;;;;;;;;;;5069361;28;19935;-86
2022/01/26 14:28:20;;;;;;;;;;;;;;;;;;5075641;28;20355;-80
2022/01/26 15:40:24;;;;;;;;;;;;;;;;;;4980760;28;19937;-82
2022/01/26 16:52:47;;;;;;;;;;;;;;;;;;4950203;28;19930;-74
2022/01/26 17:26:23;;;;;;;;;;;;;;;;;;4970891;28;19926;-75
2022/01/26 18:39:04;;;;;;;;;;;;;;;;;;4986950;28;21256;-77
2022/01/26 18:49:32;;;;;;;;;;;;;;;;;;4967935;28;19933;-78
2022/01/26 18:52:01;;;;;;;;;;;;;;;;;;4976713;28;19921;-77
2022/01/26 18:54:27;;;;;;;;;;;;;;;;;;4943620;28;19936;-77
2022/01/26 18:56:55;;;;;;;;;;;;;;;;;;4968363;28;19922;-77
2022/01/26 18:59:22;;;;;;;;;;;;;;;;;;4976213;28;19986;-78
2022/01/26 19:01:56;;;;;;;;;;;;;;;;;;4972666;28;20706;-76
2022/01/26 19:04:27;;;;;;;;;;;;;;;;;;4977809;28;19985;-77
2022/01/26 19:06:54;;;;;;;;;;;;;;;;;;4985767;28;19926;-76
2022/01/26 19:09:25;;;;;;;;;;;;;;;;;;4973749;28;19940;-79
2022/01/26 19:11:51;;;;;;;;;;;;;;;;;;4965289;28;20467;-77
2022/01/26 19:14:18;;;;;;;;;;;;;;;;;;4987184;28;19997;-77
2022/01/26 19:16:50;;;;;;;;;;;;;;;;;;4966400;28;20360;-77
2022/01/26 19:27:17;;;;;;;;;;;;;;;;;;4962619;28;19933;-78
2022/01/26 19:30:02;;;;;;;;;;;;;;;;;;4959944;28;20407;-78
2022/01/26 19:33:17;;;;;;;;;;;;;;;;;;4959610;28;20012;-77
2022/01/26 19:46:26;;;;;;;;;;;;;;;;;;4980410;28;22271;-77
2022/01/26 19:51:46;;;;;;;;;;;;;;;;;;4942729;28;19929;-76
2022/01/26 19:54:12;;;;;;;;;;;;;;;;;;4955226;28;19926;-76
2022/01/26 19:56:38;;;;;;;;;;;;;;;;;;4938083;28;20368;-76
2022/01/26 19:59:04;;;;;;;;;;;;;;;;;;4960789;28;20077;-78
2022/01/26 20:01:30;;;;;;;;;;;;;;;;;;4957713;28;20017;-76
2022/01/26 20:03:56;;;;;;;;;;;;;;;;;;4961029;28;21125;-76
2022/01/26 20:06:22;;;;;;;;;;;;;;;;;;4966393;28;20285;-77
2022/01/26 20:09:00;;;;;;;;;;;;;;;;;;4942603;28;19941;-77
2022/01/26 20:11:37;;;;;;;;;;;;;;;;;;4946029;28;20305;-76
2022/01/26 20:14:06;;;;;;;;;;;;;;;;;;4966275;28;19925;-76
2022/01/26 20:16:33;;;;;;;;;;;;;;;;;;4956938;28;19980;-76
2022/01/26 20:18:59;;;;;;;;;;;;;;;;;;4966175;28;19936;-77
2022/01/26 20:21:27;;;;;;;;;;;;;;;;;;4942776;28;19930;-77
2022/01/26 20:23:53;;;;;;;;;;;;;;;;;;4946435;28;20310;-77
2022/01/26 20:26:22;;;;;;;;;;;;;;;;;;4969483;28;19936;-76
2022/01/26 20:28:48;;;;;;;;;;;;;;;;;;4973585;28;19945;-77
2022/01/26 20:31:20;;;;;;;;;;;;;;;;;;4966190;28;19934;-77
2022/01/26 20:33:46;;;;;;;;;;;;;;;;;;4924778;28;20025;-77
2022/01/26 20:36:12;;;;;;;;;;;;;;;;;;4959675;28;19984;-77
2022/01/26 20:38:39;;;;;;;;;;;;;;;;;;4949419;28;19929;-77
2022/01/26 20:41:07;;;;;;;;;;;;;;;;;;4963797;28;20376;-77
2022/01/26 20:43:33;;;;;;;;;;;;;;;;;;4964572;28;19930;-77
2022/01/26 20:46:05;;;;;;;;;;;;;;;;;;4947676;28;19937;-77
2022/01/26 20:48:31;;;;;;;;;;;;;;;;;;4948421;28;19940;-76
2022/01/26 20:50:57;;;;;;;;;;;;;;;;;;4982556;28;19955;-77
2022/01/26 20:53:23;;;;;;;;;;;;;;;;;;4967179;28;20012;-76
2022/01/26 20:55:49;;;;;;;;;;;;;;;;;;4991186;28;20002;-77
2022/01/26 20:58:18;;;;;;;;;;;;;;;;;;4983751;28;20017;-77
2022/01/26 21:00:57;;;;;;;;;;;;;;;;;;;;;
2022/01/26 21:03:23;;;;;;;;;;;;;;;;;;4977616;28;19933;-77
2022/01/26 21:05:52;;;;;;;;;;;;;;;;;;4986702;28;19929;-77
2022/01/26 21:08:21;;;;;;;;;;;;;;;;;;4974763;28;19936;-77
2022/01/26 21:10:58;;;;;;;;;;;;;;;;;;4994467;28;20493;-77
2022/01/26 21:13:24;;;;;;;;;;;;;;;;;;4964344;28;19992;-77
2022/01/26 21:15:50;;;;;;;;;;;;;;;;;;4971250;28;19921;-77
2022/01/26 21:18:18;;;;;;;;;;;;;;;;;;4985121;28;19974;-77
2022/01/26 21:20:46;;;;;;;;;;;;;;;;;;4962331;28;19925;-76
2022/01/26 21:23:12;;;;;;;;;;;;;;;;;;4950872;28;19935;-77
2022/01/26 21:25:41;;;;;;;;;;;;;;;;;;4962819;28;19929;-77
2022/01/26 21:28:07;;;;;;;;;;;;;;;;;;4954332;28;19933;-77
2022/01/26 21:30:33;;;;;;;;;;;;;;;;;;4958448;28;19961;-76
2022/01/26 21:32:59;;;;;;;;;;;;;;;;;;4981565;28;19926;-76
2022/01/26 21:35:27;;;;;;;;;;;;;;;;;;4983685;28;19925;-77
2022/01/26 21:37:53;;;;;;;;;;;;;;;;;;4963885;28;20377;-76
2022/01/26 21:40:19;;;;;;;;;;;;;;;;;;4977557;28;19937;-77
2022/01/26 21:42:45;;;;;;;;;;;;;;;;;;4978765;28;20504;-77
2022/01/26 21:45:11;;;;;;;;;;;;;;;;;;4979991;28;19929;-77
2022/01/26 21:47:37;;;;;;;;;;;;;;;;;;4962896;28;19936;-76
2022/01/26 21:50:03;;;;;;;;;;;;;;;;;;4977233;28;20304;-76
2022/01/26 21:52:30;;;;;;;;;;;;;;;;;;4981441;28;20438;-76
2022/01/26 21:54:58;;;;;;;;;;;;;;;;;;4982170;28;19926;-76
2022/01/26 21:57:24;;;;;;;;;;;;;;;;;;4969925;28;19930;-77
2022/01/26 21:59:50;;;;;;;;;;;;;;;;;;4975524;28;19934;-77
2022/01/26 22:02:19;;;;;;;;;;;;;;;;;;4983436;28;20184;-77
2022/01/26 22:04:48;;;;;;;;;;;;;;;;;;4965866;28;19993;-76
2022/01/26 22:07:17;;;;;;;;;;;;;;;;;;4970273;28;20575;-76
2022/01/26 22:09:45;;;;;;;;;;;;;;;;;;4975812;28;19945;-76
2022/01/26 22:12:11;;;;;;;;;;;;;;;;;;4980151;28;19960;-76
2022/01/26 22:14:37;;;;;;;;;;;;;;;;;;4978081;28;20368;-76
2022/01/26 22:17:05;;;;;;;;;;;;;;;;;;4964429;28;19952;-76
2022/01/26 22:19:31;;;;;;;;;;;;;;;;;;4961077;28;19925;-76
2022/01/26 22:21:58;;;;;;;;;;;;;;;;;;4980307;28;19937;-76
2022/01/26 22:24:24;;;;;;;;;;;;;;;;;;4977726;28;19926;-76
2022/01/26 22:26:51;;;;;;;;;;;;;;;;;;4963641;28;19921;-76
2022/01/26 22:29:23;;;;;;;;;;;;;;;;;;4978750;28;19926;-76
2022/01/26 22:31:49;;;;;;;;;;;;;;;;;;4979476;28;20316;-76
2022/01/26 22:34:17;;;;;;;;;;;;;;;;;;4982368;28;19940;-76
2022/01/26 22:36:43;;;;;;;;;;;;;;;;;;4990783;28;20355;-76
2022/01/26 22:39:09;;;;;;;;;;;;;;;;;;4998223;28;19945;-76
2022/01/26 22:41:38;;;;;;;;;;;;;;;;;;4988099;28;19969;-76
2022/01/26 22:44:04;;;;;;;;;;;;;;;;;;4965136;28;20418;-76
2022/01/26 22:46:30;;;;;;;;;;;;;;;;;;4966520;28;19929;-75
2022/01/26 22:48:56;;;;;;;;;;;;;;;;;;4987186;28;20955;-76
2022/01/26 22:51:22;;;;;;;;;;;;;;;;;;4956524;28;19932;-77
2022/01/26 22:53:48;;;;;;;;;;;;;;;;;;4981437;28;20362;-76
2022/01/26 22:56:14;;;;;;;;;;;;;;;;;;4989377;28;19925;-76
2022/01/26 22:58:40;;;;;;;;;;;;;;;;;;4966733;28;19964;-77
2022/01/26 23:03:35;;;;;;;;;;;;;;;;;;4986289;28;20269;-76
2022/01/26 23:06:21;;;;;;;;;;;;;;;;;;4973644;28;20373;-76
2022/01/26 23:08:47;;;;;;;;;;;;;;;;;;4983801;28;20734;-76
2022/01/26 23:11:13;;;;;;;;;;;;;;;;;;4985389;28;21017;-76
2022/01/26 23:13:40;;;;;;;;;;;;;;;;;;4983459;28;19944;-77
2022/01/26 23:16:06;;;;;;;;;;;;;;;;;;4985544;28;19926;-76
2022/01/26 23:18:32;;;;;;;;;;;;;;;;;;4968355;28;20414;-76
2022/01/26 23:20:58;;;;;;;;;;;;;;;;;;4972274;28;19932;-76
2022/01/26 23:23:26;;;;;;;;;;;;;;;;;;4971808;28;20352;-77
2022/01/26 23:28:49;;;;;;;;;;;;;;;;;;4988809;28;20029;-76
